Time;durP1;ratioP1;P1;durP2;ratioP2;P2;SDS_P1;SDS_P2;PMS_P1;PMS_P2;Temp;Humidity;BMP_temperature;BMP_pressure;BME280_temperature;BME280_humidity;BME280_pressure;Samples;Min_cycle;Max_cycle;Signal;HPM_P1;HPM_P2
2022/07/25 00:00:15;;;;;;;18.77;15.32;;;;;;;20.14;82.92;100976.97;5004562;28;20026;-71
2022/07/25 00:02:41;;;;;;;19.65;15.60;;;;;;;20.16;83.49;100977.50;5001876;28;20112;-71
2022/07/25 00:05:07;;;;;;;20.73;15.85;;;;;;;20.16;82.87;100972.75;4994275;28;20022;-71
2022/07/25 00:07:32;;;;;;;19.05;16.05;;;;;;;20.17;83.21;100963.31;5000532;28;20054;-72
2022/07/25 00:09:57;;;;;;;21.20;16.20;;;;;;;20.23;82.23;100960.47;4985804;28;20097;-71
2022/07/25 00:12:23;;;;;;;17.40;13.88;;;;;;;20.21;84.32;100955.16;4984529;28;20026;-72
2022/07/25 00:14:48;;;;;;;19.45;15.15;;;;;;;20.21;83.15;100955.97;4987359;28;20608;-71
2022/07/25 00:17:14;;;;;;;18.75;15.80;;;;;;;20.18;83.32;100956.59;4994336;28;20085;-71
2022/07/25 00:19:39;;;;;;;15.25;13.00;;;;;;;20.17;83.82;100948.50;4990035;28;20184;-71
2022/07/25 00:22:05;;;;;;;16.55;13.73;;;;;;;20.16;84.34;100947.66;5001696;28;20085;-71
2022/07/25 00:24:30;;;;;;;20.67;16.90;;;;;;;20.11;83.63;100942.13;5003330;28;20049;-71
2022/07/25 00:26:55;;;;;;;21.25;15.95;;;;;;;20.09;83.55;100946.34;4997141;28;20023;-72
2022/07/25 00:29:21;;;;;;;21.55;15.95;;;;;;;20.06;83.80;100936.59;4993257;28;20029;-71
2022/07/25 00:31:46;;;;;;;17.77;14.15;;;;;;;20.03;84.78;100936.38;5003881;28;20062;-71
2022/07/25 00:34:12;;;;;;;22.13;18.42;;;;;;;19.98;82.92;100930.84;5004981;28;20436;-71
2022/07/25 00:36:37;;;;;;;24.70;19.08;;;;;;;19.96;82.92;100928.31;5002691;28;20030;-71
2022/07/25 00:39:03;;;;;;;22.33;18.25;;;;;;;19.94;82.29;100927.78;5005695;28;20042;-71
2022/07/25 00:41:29;;;;;;;21.63;17.63;;;;;;;19.93;82.56;100926.13;5008319;28;20030;-71
2022/07/25 00:43:54;;;;;;;20.00;13.70;;;;;;;19.91;84.79;100922.78;5007199;28;20855;-71
2022/07/25 00:46:19;;;;;;;18.40;12.43;;;;;;;19.86;85.02;100923.66;5001774;28;20038;-71
2022/07/25 00:48:45;;;;;;;22.60;15.13;;;;;;;19.81;84.54;100915.34;4988699;28;20027;-71
2022/07/25 00:51:11;;;;;;;16.98;13.57;;;;;;;19.80;85.00;100919.25;4993200;28;20472;-71
2022/07/25 00:53:37;;;;;;;22.92;17.83;;;;;;;19.77;83.65;100913.41;5008758;28;20520;-71
2022/07/25 00:56:04;;;;;;;19.52;14.52;;;;;;;19.75;84.42;100912.91;5000406;28;20029;-71
2022/07/25 00:58:29;;;;;;;18.58;13.98;;;;;;;19.70;84.75;100914.59;4989562;28;20030;-71
2022/07/25 01:00:54;;;;;;;21.40;14.63;;;;;;;19.65;84.39;100906.28;5008186;28;20025;-71
2022/07/25 01:03:20;;;;;;;20.67;14.38;;;;;;;19.62;84.95;100904.09;5000546;28;20041;-71
2022/07/25 01:05:45;;;;;;;17.80;14.93;;;;;;;19.56;84.50;100907.97;4989083;28;20482;-71
2022/07/25 01:08:12;;;;;;;21.92;15.30;;;;;;;19.52;84.83;100904.13;4991028;28;20589;-71
2022/07/25 01:10:37;;;;;;;20.60;14.38;;;;;;;19.47;85.62;100898.59;4987929;28;20026;-71
2022/07/25 01:13:03;;;;;;;21.85;16.63;;;;;;;19.43;85.23;100903.06;4989981;28;20035;-71
2022/07/25 01:15:28;;;;;;;21.25;16.33;;;;;;;19.43;85.09;100891.91;5003837;28;20421;-71
2022/07/25 01:17:54;;;;;;;23.20;17.67;;;;;;;19.44;85.59;100899.16;4987793;28;20052;-71
2022/07/25 01:20:24;;;;;;;25.02;20.73;;;;;;;19.43;84.51;100881.59;4999311;28;20034;-71
2022/07/25 01:22:51;;;;;;;26.55;19.63;;;;;;;19.48;85.18;100888.28;5007697;28;20084;-71
2022/07/25 01:25:18;;;;;;;21.15;17.50;;;;;;;19.49;85.53;100870.44;5004764;28;20045;-71
2022/07/25 01:27:44;;;;;;;24.25;19.25;;;;;;;19.47;84.68;100870.72;5007580;28;20082;-71
2022/07/25 01:30:12;;;;;;;25.83;21.33;;;;;;;19.47;84.11;100875.47;5007040;28;20053;-71
2022/07/25 01:32:37;;;;;;;;;;;;;;;19.63;82.68;100865.91;5006361;28;20033;-71
2022/07/25 01:35:07;;;;;;;25.50;19.83;;;;;;;19.51;83.99;100869.00;5005901;28;19984;-71
2022/07/25 01:37:33;;;;;;;25.60;19.65;;;;;;;19.54;83.99;100864.81;5006719;28;20037;-71
2022/07/25 01:39:58;;;;;;;23.70;20.00;;;;;;;19.53;83.87;100869.56;5006867;28;20028;-71
2022/07/25 01:42:23;;;;;;;22.95;19.25;;;;;;;19.55;84.88;100860.91;5006633;28;20032;-71
2022/07/25 01:44:49;;;;;;;25.33;21.13;;;;;;;19.50;84.27;100861.78;4997905;28;20026;-71
2022/07/25 01:47:15;;;;;;;21.60;16.63;;;;;;;19.52;85.27;100861.50;4997119;28;20423;-71
2022/07/25 01:49:41;;;;;;;22.67;18.88;;;;;;;19.48;85.02;100847.31;5006239;28;20076;-71
2022/07/25 01:52:06;;;;;;;23.27;18.30;;;;;;;19.48;84.22;100846.50;5007412;28;20038;-72
2022/07/25 01:54:31;;;;;;;24.50;19.87;;;;;;;19.44;84.66;100849.84;5005722;28;20120;-71
2022/07/25 01:56:57;;;;;;;21.77;17.55;;;;;;;19.42;85.52;100840.97;5006393;28;20296;-72
2022/07/25 01:59:22;;;;;;;22.75;17.48;;;;;;;19.42;85.14;100832.59;4998819;28;20034;-71
2022/07/25 02:01:47;;;;;;;22.88;17.85;;;;;;;19.36;85.50;100830.97;4992702;28;20057;-71
2022/07/25 02:04:13;;;;;;;25.17;17.60;;;;;;;19.36;85.21;100828.19;5001987;28;20018;-71
2022/07/25 02:06:40;;;;;;;23.73;17.55;;;;;;;19.32;85.64;100829.06;4996594;28;20043;-71
2022/07/25 02:09:06;;;;;;;22.42;16.52;;;;;;;19.31;85.86;100822.66;5006271;28;20045;-71
2022/07/25 02:11:32;;;;;;;27.38;19.35;;;;;;;19.31;84.92;100819.03;5007112;28;20057;-71
2022/07/25 02:13:57;;;;;;;23.77;17.60;;;;;;;19.31;86.32;100824.59;5006520;28;20054;-72
2022/07/25 02:16:22;;;;;;;21.27;16.85;;;;;;;19.33;86.17;100819.59;5003863;28;20575;-71
2022/07/25 02:18:47;;;;;;;26.73;19.60;;;;;;;19.32;85.43;100820.72;5006553;28;20057;-71
2022/07/25 02:21:12;;;;;;;25.58;20.65;;;;;;;19.32;84.04;100827.09;5005963;28;20392;-71
2022/07/25 02:23:39;;;;;;;27.17;19.20;;;;;;;19.35;86.30;100820.13;5004328;28;20038;-71
2022/07/25 02:26:04;;;;;;;26.60;20.60;;;;;;;19.36;84.48;100813.41;5004157;28;20101;-71
2022/07/25 02:28:30;;;;;;;24.02;19.20;;;;;;;19.37;85.30;100821.50;5007073;28;20129;-72
2022/07/25 02:30:55;;;;;;;23.27;19.35;;;;;;;19.36;83.86;100818.97;5005673;28;20022;-71
2022/07/25 02:33:20;;;;;;;25.08;18.63;;;;;;;19.34;84.01;100815.66;5006454;28;20022;-69
2022/07/25 02:35:46;;;;;;;24.38;18.23;;;;;;;19.38;85.38;100808.41;5004018;28;20026;-71
2022/07/25 02:38:18;;;;;;;23.63;18.58;;;;;;;19.35;84.61;100803.41;5006532;28;20034;-72
2022/07/25 02:40:44;;;;;;;28.65;18.73;;;;;;;19.33;85.24;100803.69;5004906;28;20033;-71
2022/07/25 02:43:09;;;;;;;24.20;19.33;;;;;;;19.27;85.44;100806.81;5005261;28;20061;-72
2022/07/25 02:45:34;;;;;;;23.58;18.45;;;;;;;19.20;85.28;100801.56;5002079;28;20045;-71
2022/07/25 02:47:59;;;;;;;22.83;19.02;;;;;;;19.13;85.43;100795.50;5006029;28;20034;-71
2022/07/25 02:50:25;;;;;;;23.60;18.93;;;;;;;19.12;86.08;100791.06;4992477;28;20036;-71
2022/07/25 02:52:50;;;;;;;22.58;18.45;;;;;;;19.08;85.82;100790.78;4986751;28;20752;-69
2022/07/25 02:55:15;;;;;;;26.13;20.30;;;;;;;19.03;85.58;100788.03;4989852;28;20033;-72
2022/07/25 02:57:40;;;;;;;25.55;20.20;;;;;;;18.98;85.90;100792.81;5005953;28;20041;-72
2022/07/25 03:00:07;;;;;;;25.00;19.77;;;;;;;19.00;86.30;100790.56;5005256;28;20061;-71
2022/07/25 03:02:32;;;;;;;24.15;18.75;;;;;;;18.97;86.38;100783.63;5004324;28;20034;-72
2022/07/25 03:04:58;;;;;;;23.73;18.40;;;;;;;18.99;87.02;100788.91;5003490;28;20025;-71
2022/07/25 03:07:23;;;;;;;24.88;19.80;;;;;;;18.99;86.43;100784.16;5005514;28;20046;-72
2022/07/25 03:09:48;;;;;;;24.17;18.17;;;;;;;18.97;86.63;100785.59;4988083;28;20081;-71
2022/07/25 03:12:13;;;;;;;23.77;19.42;;;;;;;18.93;86.42;100777.81;5005703;28;20034;-71
2022/07/25 03:14:39;;;;;;;23.30;18.75;;;;;;;18.89;86.69;100771.16;5003993;28;20014;-71
2022/07/25 03:17:04;;;;;;;24.83;19.55;;;;;;;18.88;87.12;100768.66;4994365;28;20044;-71
2022/07/25 03:19:29;;;;;;;27.27;19.67;;;;;;;18.87;86.20;100762.28;5005829;28;20030;-71
2022/07/25 03:21:55;;;;;;;25.52;19.27;;;;;;;18.83;86.25;100765.91;5005459;28;20284;-72
2022/07/25 03:24:20;;;;;;;28.13;19.17;;;;;;;18.79;86.59;100757.31;5005278;28;20022;-70
2022/07/25 03:26:45;;;;;;;26.05;19.73;;;;;;;18.77;86.18;100756.78;4987329;28;20528;-71
2022/07/25 03:29:11;;;;;;;25.25;18.25;;;;;;;18.78;86.59;100763.16;4985857;28;20042;-71
2022/07/25 03:31:37;;;;;;;26.17;18.55;;;;;;;18.78;86.74;100764.00;4986025;28;20026;-71
2022/07/25 03:34:03;;;;;;;24.05;18.80;;;;;;;18.82;86.31;100767.03;4991452;28;20025;-71
2022/07/25 03:36:28;;;;;;;24.52;18.27;;;;;;;18.83;86.18;100768.69;4989429;28;20038;-72
2022/07/25 03:38:55;;;;;;;22.45;18.42;;;;;;;18.89;86.85;100765.59;4983478;28;20029;-72
2022/07/25 03:41:21;;;;;;;22.42;18.25;;;;;;;18.89;86.56;100757.22;4987537;28;20488;-71
2022/07/25 03:43:46;;;;;;;20.70;17.10;;;;;;;18.96;85.48;100758.84;5003932;28;20025;-71
2022/07/25 03:46:11;;;;;;;20.48;17.70;;;;;;;18.97;85.66;100763.31;4989330;28;20026;-70
2022/07/25 03:48:36;;;;;;;21.45;17.88;;;;;;;18.92;86.06;100756.66;4985914;28;20038;-71
2022/07/25 03:51:02;;;;;;;21.75;17.45;;;;;;;18.98;86.72;100767.75;4985299;28;20033;-71
2022/07/25 03:53:27;;;;;;;25.90;18.17;;;;;;;19.04;86.16;100764.66;4985654;28;20684;-71
2022/07/25 03:55:52;;;;;;;24.03;18.17;;;;;;;18.99;86.52;100764.69;4984806;28;20031;-71
2022/07/25 03:58:17;;;;;;;25.35;18.50;;;;;;;18.93;86.82;100760.28;4999115;28;20327;-70
2022/07/25 04:00:43;;;;;;;22.83;18.07;;;;;;;18.86;87.28;100755.03;5005511;28;20049;-71
2022/07/25 04:03:08;;;;;;;23.92;17.60;;;;;;;18.83;87.36;100752.00;5003781;28;20299;-71
2022/07/25 04:05:33;;;;;;;22.48;17.67;;;;;;;18.82;86.97;100739.22;5002461;28;20440;-71
2022/07/25 04:07:59;;;;;;;22.25;18.75;;;;;;;18.76;86.63;100743.16;5003164;28;20046;-71
2022/07/25 04:10:24;;;;;;;23.92;18.20;;;;;;;18.76;86.61;100735.63;5004503;28;20026;-71
2022/07/25 04:12:49;;;;;;;24.98;18.08;;;;;;;18.74;87.17;100742.59;5001585;28;20037;-70
2022/07/25 04:15:15;;;;;;;22.77;17.55;;;;;;;18.77;87.15;100739.25;5001493;28;20048;-71
2022/07/25 04:17:40;;;;;;;23.25;18.63;;;;;;;18.79;86.51;100737.00;4991892;28;20037;-71
2022/07/25 04:20:06;;;;;;;21.75;17.45;;;;;;;18.82;86.53;100739.22;4992034;28;20026;-71
2022/07/25 04:22:31;;;;;;;21.00;17.20;;;;;;;18.87;87.51;100742.78;4991784;28;20019;-71
2022/07/25 04:24:57;;;;;;;25.00;18.02;;;;;;;18.95;85.11;100741.31;4997052;28;20125;-71
2022/07/25 04:27:22;;;;;;;23.00;17.30;;;;;;;18.90;87.25;100735.81;5010865;28;20049;-71
2022/07/25 04:29:47;;;;;;;21.48;17.80;;;;;;;18.92;86.44;100731.63;5012093;28;20068;-71
2022/07/25 04:32:13;;;;;;;22.70;17.65;;;;;;;18.95;86.03;100735.75;5011138;28;20541;-71
2022/07/25 04:34:39;;;;;;;25.25;17.65;;;;;;;19.03;86.85;100734.31;5009200;28;20022;-70
2022/07/25 04:37:04;;;;;;;21.52;17.63;;;;;;;19.09;85.98;100745.13;5010222;28;20029;-71
2022/07/25 04:39:29;;;;;;;23.58;17.95;;;;;;;19.17;85.47;100741.72;5009824;28;20029;-70
2022/07/25 04:41:54;;;;;;;23.10;17.33;;;;;;;19.25;84.66;100747.78;5010191;28;20036;-70
2022/07/25 04:44:19;;;;;;;21.13;16.92;;;;;;;19.28;85.23;100741.66;5008045;28;20040;-70
2022/07/25 04:46:45;;;;;;;23.50;17.70;;;;;;;19.31;85.45;100747.47;5011466;28;20033;-70
2022/07/25 04:49:10;;;;;;;24.65;17.88;;;;;;;19.33;86.52;100744.38;5010778;28;20037;-70
2022/07/25 04:51:35;;;;;;;22.08;16.75;;;;;;;19.36;86.23;100739.06;5011514;28;20028;-70
2022/07/25 04:54:01;;;;;;;21.13;17.48;;;;;;;19.38;85.98;100742.38;5008001;28;20030;-71
2022/07/25 04:56:26;;;;;;;21.80;17.60;;;;;;;19.42;86.24;100732.31;5011229;28;20485;-71
2022/07/25 04:58:51;;;;;;;23.40;17.25;;;;;;;19.48;84.55;100735.06;5011193;28;20037;-71
2022/07/25 05:01:16;;;;;;;21.42;17.70;;;;;;;19.49;87.45;100720.00;5006036;28;20084;-70
2022/07/25 05:03:42;;;;;;;22.35;17.85;;;;;;;19.56;87.02;100728.84;4992410;28;20045;-71
2022/07/25 05:06:08;;;;;;;22.27;17.20;;;;;;;19.61;87.06;100735.22;5000327;28;20488;-71
2022/07/25 05:08:33;;;;;;;25.23;15.23;;;;;;;19.72;82.02;100723.97;5007181;28;20049;-70
2022/07/25 05:10:59;;;;;;;20.38;13.63;;;;;;;19.87;80.07;100726.59;5007484;28;20030;-71
2022/07/25 05:13:24;;;;;;;19.65;13.93;;;;;;;20.09;75.55;100723.28;4999713;28;20022;-71
2022/07/25 05:15:49;;;;;;;19.83;12.05;;;;;;;20.32;73.48;100728.00;4993227;28;20571;-71
2022/07/25 05:18:14;;;;;;;17.87;11.87;;;;;;;20.51;71.66;100733.63;4991137;28;20058;-71
2022/07/25 05:20:40;;;;;;;23.35;12.82;;;;;;;20.65;72.21;100731.78;4991304;28;20752;-71
2022/07/25 05:23:05;;;;;;;21.63;11.73;;;;;;;20.77;70.98;100730.50;5005612;28;20033;-71
2022/07/25 05:25:31;;;;;;;16.73;11.35;;;;;;;20.87;70.92;100731.16;5003660;28;20369;-70
2022/07/25 05:27:57;;;;;;;16.63;11.93;;;;;;;20.99;69.84;100730.72;4990704;28;20045;-71
2022/07/25 05:30:23;;;;;;;16.13;11.23;;;;;;;21.05;69.20;100720.28;4988289;28;20102;-71
2022/07/25 05:32:48;;;;;;;16.45;11.40;;;;;;;21.13;68.86;100725.16;4988541;28;20088;-70
2022/07/25 05:35:14;;;;;;;17.42;11.52;;;;;;;21.20;68.51;100731.22;4997405;28;20465;-70
2022/07/25 05:37:40;;;;;;;14.93;10.85;;;;;;;21.24;69.13;100721.91;5007500;28;20151;-70
2022/07/25 05:40:06;;;;;;;19.33;11.35;;;;;;;21.27;69.52;100731.63;5006531;28;20017;-71
2022/07/25 05:42:32;;;;;;;16.95;12.10;;;;;;;21.32;68.06;100723.22;5005447;28;20030;-71
2022/07/25 05:44:58;;;;;;;19.77;12.52;;;;;;;21.33;68.53;100732.41;4997024;28;20023;-71
2022/07/25 05:47:24;;;;;;;18.30;12.30;;;;;;;21.36;67.92;100734.59;5000306;28;20041;-71
2022/07/25 05:49:49;;;;;;;17.50;12.45;;;;;;;21.35;68.77;100738.53;5006947;28;20084;-71
2022/07/25 05:52:14;;;;;;;16.63;12.88;;;;;;;21.40;69.18;100738.44;5006661;28;20022;-71
2022/07/25 05:54:40;;;;;;;18.60;12.13;;;;;;;21.42;68.25;100739.78;5005928;28;20101;-71
2022/07/25 05:57:05;;;;;;;16.67;12.35;;;;;;;21.37;68.37;100733.47;5007238;28;20029;-72
2022/07/25 05:59:30;;;;;;;18.87;13.07;;;;;;;21.35;69.87;100727.38;5006946;28;20495;-71
2022/07/25 06:01:55;;;;;;;17.77;13.25;;;;;;;21.36;69.65;100737.41;5006834;28;20335;-71
2022/07/25 06:04:21;;;;;;;16.38;11.75;;;;;;;21.35;68.70;100744.97;5006220;28;20437;-71
2022/07/25 06:06:50;;;;;;;20.75;13.27;;;;;;;21.34;70.10;100754.47;4996705;28;20452;-72
2022/07/25 06:09:24;;;;;;;17.92;12.18;;;;;;;21.39;69.63;100759.97;5006330;28;20037;-71
2022/07/25 06:11:50;;;;;;;17.13;12.63;;;;;;;21.38;69.49;100760.25;5007558;28;20025;-71
2022/07/25 06:14:15;;;;;;;17.90;11.98;;;;;;;21.39;68.96;100759.13;5002094;28;20006;-71
2022/07/25 06:16:41;;;;;;;19.75;12.80;;;;;;;21.40;69.52;100764.44;4987544;28;20057;-72
2022/07/25 06:19:07;;;;;;;19.60;12.30;;;;;;;21.44;68.93;100764.63;4987340;28;20105;-71
2022/07/25 06:21:32;;;;;;;16.52;13.52;;;;;;;21.42;69.64;100758.53;4987487;28;20026;-72
2022/07/25 06:23:58;;;;;;;16.88;12.75;;;;;;;21.37;69.62;100759.44;4988718;28;20389;-71
2022/07/25 06:26:23;;;;;;;18.63;13.35;;;;;;;21.34;68.59;100750.81;5006578;28;20022;-71
2022/07/25 06:28:50;;;;;;;16.48;13.20;;;;;;;21.35;68.91;100761.72;4994420;28;20026;-71
2022/07/25 06:31:15;;;;;;;18.10;12.25;;;;;;;21.38;68.54;100757.47;4999074;28;20125;-71
2022/07/25 06:33:41;;;;;;;18.20;11.73;;;;;;;21.41;69.61;100760.50;5007087;28;20449;-72
2022/07/25 06:36:06;;;;;;;17.58;11.63;;;;;;;21.45;69.43;100761.53;5005958;28;20085;-72
2022/07/25 06:38:31;;;;;;;14.85;11.55;;;;;;;21.46;69.23;100763.19;5006814;28;20030;-71
2022/07/25 06:40:57;;;;;;;18.20;11.60;;;;;;;21.46;68.37;100766.00;5006885;28;20056;-71
2022/07/25 06:43:22;;;;;;;16.38;11.25;;;;;;;21.51;69.26;100765.06;5006927;28;20044;-72
2022/07/25 06:45:48;;;;;;;15.68;11.45;;;;;;;21.58;68.55;100767.47;4990911;28;20366;-72
2022/07/25 06:48:14;;;;;;;16.45;10.75;;;;;;;21.60;67.90;100759.63;4987055;28;20034;-72
2022/07/25 06:50:39;;;;;;;15.85;10.50;;;;;;;21.66;69.35;100756.41;4996666;28;20040;-69
2022/07/25 06:53:05;;;;;;;15.10;10.73;;;;;;;21.75;68.81;100765.75;5012898;28;20034;-72
2022/07/25 06:55:30;;;;;;;14.30;10.00;;;;;;;21.77;68.42;100763.47;4993437;28;20034;-71
2022/07/25 06:57:55;;;;;;;14.63;10.45;;;;;;;21.78;68.47;100769.91;5005582;28;20333;-71
2022/07/25 07:00:21;;;;;;;13.05;9.60;;;;;;;21.82;68.18;100762.56;4998229;28;20041;-71
2022/07/25 07:02:50;;;;;;;13.07;9.27;;;;;;;21.79;67.43;100768.75;5006244;28;20030;-71
2022/07/25 07:05:16;;;;;;;13.98;9.15;;;;;;;21.77;67.85;100768.25;5006390;28;20026;-71
2022/07/25 07:07:41;;;;;;;13.93;8.43;;;;;;;21.73;67.33;100758.81;5005542;28;20049;-70
2022/07/25 07:10:07;;;;;;;15.13;9.25;;;;;;;21.75;67.97;100762.97;5012119;28;20041;-71
2022/07/25 07:12:32;;;;;;;12.60;8.27;;;;;;;21.76;67.80;100756.22;5006575;28;20052;-71
2022/07/25 07:14:57;;;;;;;10.98;8.15;;;;;;;21.79;66.95;100765.13;5006294;28;20052;-70
2022/07/25 07:17:23;;;;;;;12.65;7.85;;;;;;;21.84;68.56;100763.06;5006203;28;20025;-72
2022/07/25 07:19:48;;;;;;;13.98;7.63;;;;;;;21.94;67.47;100762.03;5005737;28;20187;-70
2022/07/25 07:22:13;;;;;;;15.00;7.70;;;;;;;22.08;68.41;100762.88;5005674;28;20030;-71
2022/07/25 07:24:38;;;;;;;13.37;6.83;;;;;;;22.19;67.21;100763.53;5002745;28;20300;-72
2022/07/25 07:27:04;;;;;;;13.57;6.22;;;;;;;22.34;66.84;100757.63;5001829;28;20300;-73
2022/07/25 07:29:29;;;;;;;12.35;6.47;;;;;;;22.48;66.84;100760.44;5003362;28;20056;-72
2022/07/25 07:31:54;;;;;;;10.93;4.70;;;;;;;22.51;64.45;100749.44;5005141;28;20080;-72
2022/07/25 07:34:20;;;;;;;9.83;5.17;;;;;;;22.56;65.41;100762.50;5003303;28;20024;-72
2022/07/25 07:36:45;;;;;;;9.63;4.45;;;;;;;22.60;64.82;100757.09;5001681;28;20339;-72
2022/07/25 07:39:11;;;;;;;11.05;4.57;;;;;;;22.67;65.73;100760.31;4999862;28;20022;-72
2022/07/25 07:41:36;;;;;;;8.40;3.90;;;;;;;22.73;65.10;100767.44;4999242;28;20089;-72
2022/07/25 07:44:01;;;;;;;9.80;4.50;;;;;;;22.76;65.54;100761.22;5000721;28;20034;-72
2022/07/25 07:46:26;;;;;;;7.70;3.90;;;;;;;22.65;65.29;100763.38;5001162;28;20033;-72
2022/07/25 07:48:52;;;;;;;9.27;3.70;;;;;;;22.58;65.34;100760.19;5001058;28;20485;-71
2022/07/25 07:51:17;;;;;;;7.55;3.88;;;;;;;22.64;66.27;100760.91;4990315;28;20293;-72
2022/07/25 07:56:26;;;;;;;10.38;3.85;;;;;;;22.84;65.62;100768.03;4985987;28;20049;-71
2022/07/25 07:58:51;;;;;;;9.20;3.63;;;;;;;23.03;64.76;100777.16;4985719;28;20022;-71
2022/07/25 08:01:17;;;;;;;9.10;2.93;;;;;;;23.24;63.98;100772.69;4985776;28;20441;-70
2022/07/25 08:03:42;;;;;;;9.70;3.05;;;;;;;23.47;64.08;100781.09;4986035;28;20284;-71
2022/07/25 08:06:07;;;;;;;9.13;2.53;;;;;;;23.61;64.01;100786.63;4985541;28;20034;-71
2022/07/25 08:08:33;;;;;;;7.00;2.55;;;;;;;23.76;64.10;100775.88;5002351;28;20565;-70
2022/07/25 08:10:58;;;;;;;8.82;2.15;;;;;;;23.56;63.78;100776.38;5005019;28;20033;-71
2022/07/25 08:13:28;;;;;;;10.60;2.35;;;;;;;23.36;64.50;100774.09;5004609;28;20080;-71
2022/07/25 08:15:56;;;;;;;6.72;2.40;;;;;;;23.42;65.18;100773.66;4997551;28;20473;-71
2022/07/25 08:18:23;;;;;;;8.35;2.35;;;;;;;23.59;65.67;100783.34;5001501;28;20538;-71
2022/07/25 08:20:49;;;;;;;7.50;3.17;;;;;;;23.77;65.99;100783.16;5005120;28;20014;-71
2022/07/25 08:23:15;;;;;;;12.85;2.17;;;;;;;23.89;64.59;100767.72;5004353;28;20022;-72
2022/07/25 08:25:41;;;;;;;7.43;1.80;;;;;;;23.89;63.65;100776.94;5005460;28;20029;-71
2022/07/25 08:28:06;;;;;;;8.82;2.13;;;;;;;23.85;64.10;100773.13;5005022;28;20033;-71
2022/07/25 08:30:34;;;;;;;10.70;1.90;;;;;;;23.80;65.41;100776.91;5005067;28;20377;-71
2022/07/25 08:33:02;;;;;;;9.15;2.08;;;;;;;23.78;65.49;100776.41;5003014;28;20042;-72
2022/07/25 08:35:28;;;;;;;5.90;2.03;;;;;;;23.83;65.04;100785.84;5016249;28;20027;-70
2022/07/25 08:37:54;;;;;;;5.35;1.92;;;;;;;23.97;65.35;100781.75;5005386;28;20034;-72
2022/07/25 08:40:28;;;;;;;8.88;2.15;;;;;;;24.05;64.79;100788.56;5004754;28;20036;-71
2022/07/25 08:42:53;;;;;;;7.07;1.98;;;;;;;24.20;64.92;100778.91;5005450;28;20026;-70
2022/07/25 08:45:20;;;;;;;6.38;1.92;;;;;;;24.25;64.75;100781.56;5003303;28;20037;-71
2022/07/25 08:47:47;;;;;;;6.53;1.92;;;;;;;24.32;64.29;100779.94;5006141;28;20128;-71
2022/07/25 08:50:15;;;;;;;9.05;2.00;;;;;;;24.57;62.53;100781.19;5004645;28;20034;-71
2022/07/25 08:52:42;;;;;;;;;;;;;;;24.87;61.76;100783.41;5006031;28;20021;-72
2022/07/25 08:55:09;;;;;;;5.78;2.10;;;;;;;24.77;61.19;100785.38;5001703;28;19928;-72
2022/07/25 08:57:37;;;;;;;;;;;;;;;25.01;62.02;100784.09;5005471;28;20045;-72
2022/07/25 09:00:05;;;;;;;9.23;2.08;;;;;;;24.76;62.14;100785.69;5004101;28;19922;-71
2022/07/25 09:02:31;;;;;;;6.30;1.60;;;;;;;24.55;60.62;100791.13;5008603;28;20034;-72
2022/07/25 09:04:57;;;;;;;8.60;1.67;;;;;;;24.49;61.62;100786.81;5007093;28;20079;-71
2022/07/25 09:07:37;;;;;;;9.60;2.08;;;;;;;24.45;61.84;100795.03;4989306;28;20688;-71
2022/07/25 09:10:25;;;;;;;7.40;2.33;;;;;;;24.57;61.50;100792.41;5013679;28;20029;-71
2022/07/25 09:13:06;;;;;;;7.57;1.83;;;;;;;24.76;60.60;100789.34;5009833;28;20036;-70
2022/07/25 09:15:37;;;;;;;7.80;2.28;;;;;;;24.98;59.09;100787.53;5005483;28;20026;-70
2022/07/25 09:18:11;;;;;;;7.93;2.20;;;;;;;24.93;58.86;100790.50;5002002;28;20034;-71
2022/07/25 09:20:36;;;;;;;7.35;2.10;;;;;;;25.07;58.53;100788.41;5007746;28;20026;-71
2022/07/25 09:23:02;;;;;;;8.30;1.70;;;;;;;25.28;58.46;100791.38;5005683;28;20041;-72
2022/07/25 09:25:30;;;;;;;10.07;2.00;;;;;;;25.54;58.41;100799.78;4989743;28;20034;-71
2022/07/25 09:28:17;;;;;;;7.05;2.05;;;;;;;25.69;57.55;100793.66;4988390;28;20026;-72
2022/07/25 09:30:54;;;;;;;6.60;2.15;;;;;;;26.46;55.82;100799.41;4996703;28;20030;-72
2022/07/25 09:33:22;;;;;;;8.57;1.83;;;;;;;27.49;51.50;100799.84;5021608;28;20078;-71
2022/07/25 09:35:47;;;;;;;7.95;2.55;;;;;;;27.46;50.68;100809.00;5002791;28;20056;-72
2022/07/25 09:38:14;;;;;;;7.53;2.10;;;;;;;28.10;48.92;100812.19;5004436;28;20501;-72
2022/07/25 09:40:41;;;;;;;13.65;2.78;;;;;;;28.97;47.13;100815.88;4998289;28;20436;-71
2022/07/25 09:43:07;;;;;;;5.65;2.17;;;;;;;29.56;44.72;100826.59;5008439;28;20029;-72
2022/07/25 09:45:32;;;;;;;7.88;2.20;;;;;;;29.81;43.95;100825.31;5003493;28;20044;-71
2022/07/25 09:48:00;;;;;;;11.48;2.55;;;;;;;30.56;41.41;100834.97;5018014;28;20064;-72
2022/07/25 09:50:28;;;;;;;6.63;2.13;;;;;;;30.99;39.92;100834.03;5021222;28;20022;-72
2022/07/25 09:52:54;;;;;;;;;;;;;;;31.78;40.93;100828.88;4987700;28;20109;-72
2022/07/25 09:55:20;;;;;;;6.38;2.35;;;;;;;32.29;40.02;100830.66;4996152;28;19921;-71
2022/07/25 09:57:47;;;;;;;5.78;2.10;;;;;;;32.96;39.37;100831.00;4989536;28;20038;-71
2022/07/25 10:00:15;;;;;;;6.82;2.10;;;;;;;33.31;36.59;100835.56;5007629;28;20499;-72
2022/07/25 10:03:05;;;;;;;7.30;2.55;;;;;;;33.34;37.88;100834.75;5007954;28;20030;-72
2022/07/25 10:05:50;;;;;;;7.90;2.30;;;;;;;32.50;38.44;100842.44;5006982;28;20156;-72
2022/07/25 10:08:17;;;;;;;6.20;2.45;;;;;;;32.29;37.96;100824.97;5010849;28;20455;-71
2022/07/25 10:10:42;;;;;;;6.57;2.20;;;;;;;33.43;37.63;100829.63;5007103;28;20380;-72
2022/07/25 10:13:14;;;;;;;7.15;1.98;;;;;;;34.54;35.35;100837.38;5004625;28;20041;-71
2022/07/25 10:15:49;;;;;;;7.43;2.33;;;;;;;35.44;33.19;100835.94;4992521;28;20022;-72
2022/07/25 10:18:17;;;;;;;7.38;2.10;;;;;;;35.07;34.04;100842.66;4987912;28;20049;-71
2022/07/25 10:20:44;;;;;;;7.32;2.85;;;;;;;35.33;31.95;100835.06;4997493;28;20079;-71
2022/07/25 10:23:26;;;;;;;11.60;3.30;;;;;;;36.26;34.56;100841.13;4998173;28;20045;-72
2022/07/25 10:26:12;;;;;;;10.07;2.55;;;;;;;36.95;31.43;100834.19;5011563;28;20029;-70
2022/07/25 10:28:47;;;;;;;7.00;2.40;;;;;;;35.85;32.30;100832.84;5012376;28;20738;-71
2022/07/25 10:31:32;;;;;;;6.72;2.33;;;;;;;33.70;34.49;100833.22;5026730;28;20375;-70
2022/07/25 10:34:01;;;;;;;7.85;2.00;;;;;;;32.37;36.04;100838.13;5001695;28;20033;-70
2022/07/25 10:36:41;;;;;;;8.02;2.05;;;;;;;32.28;37.90;100837.53;5006407;28;20040;-70
2022/07/25 10:39:07;;;;;;;6.38;2.15;;;;;;;30.92;39.04;100836.69;5006116;28;20076;-70
2022/07/25 10:41:38;;;;;;;8.13;1.80;;;;;;;31.16;39.17;100838.44;5007553;28;20022;-70
2022/07/25 10:44:03;;;;;;;6.07;2.08;;;;;;;32.74;36.21;100840.34;4996170;28;20297;-71
2022/07/25 10:46:29;;;;;;;6.20;2.03;;;;;;;33.05;34.50;100844.91;4987567;28;20413;-68
2022/07/25 10:49:03;;;;;;;4.88;2.03;;;;;;;32.40;35.82;100851.59;4996604;28;20029;-69
2022/07/25 10:51:33;;;;;;;7.00;1.90;;;;;;;31.85;35.71;100836.75;5006214;28;20029;-71
2022/07/25 10:53:58;;;;;;;6.00;2.00;;;;;;;31.52;37.11;100843.72;4996570;28;20033;-70
2022/07/25 10:56:26;;;;;;;5.70;1.80;;;;;;;30.86;37.33;100850.31;4987012;28;20117;-70
2022/07/25 10:59:00;;;;;;;6.80;2.20;;;;;;;30.19;38.93;100855.91;4987120;28;20037;-68
2022/07/25 11:01:30;;;;;;;7.13;2.35;;;;;;;29.29;41.45;100856.47;5004459;28;20697;-68
2022/07/25 11:04:02;;;;;;;7.57;2.20;;;;;;;28.92;42.05;100860.16;5004816;28;20026;-69
2022/07/25 11:06:38;;;;;;;6.47;2.30;;;;;;;28.86;42.80;100867.22;5005408;28;20022;-69
2022/07/25 11:09:15;;;;;;;5.25;2.25;;;;;;;28.69;43.28;100865.47;5004543;28;20503;-69
2022/07/25 11:11:47;;;;;;;7.00;2.05;;;;;;;28.38;44.47;100873.69;4987197;28;20109;-69
2022/07/25 11:14:18;;;;;;;7.80;2.30;;;;;;;28.40;45.01;100877.81;4999266;28;20173;-69